Weather at Sengkurong Heliport

Public forecast

Using degrees Celsius for public forecast. Weather courtesy of forecast.io.

Closest aviation weather report (METAR) to Sengkurong Heliport

Closest report is Brunei International Airport, 6.4 nm (11.9 km) E. Retrieved 2022/01/16 09:30 UTC (28 minutes ago):

WBSB 160930Z 36004KT 9999 FEW015 FEW016CB BKN280 28/25 Q1009 NOSIG

Closest aviation forecast (TAF) to Sengkurong Heliport

Closest forecast is Brunei International Airport, 6.4 nm (11.9 km) E. Retrieved 2022/01/16 06:12 UTC (4 hours ago):

TAF WBSB 160500Z 1606/1712 03008KT 9999 FEW016 FEW017CB BECMG 1612/1614 FEW015 FEW016CB PROB30 TEMPO 1614/1620 8000 -TSRA